createdAt,value
2022-10-22T00:02:26.198Z,12.80
2022-10-22T00:04:57.198Z,9.02
2022-10-22T00:07:25.724Z,12.85
2022-10-22T00:09:53.719Z,11.88
2022-10-22T00:12:21.974Z,11.38
2022-10-22T00:14:51.196Z,8.15
2022-10-22T00:17:19.436Z,9.32
2022-10-22T00:19:47.214Z,9.27
2022-10-22T00:22:16.372Z,8.35
2022-10-22T00:24:44.194Z,11.80
2022-10-22T00:27:13.807Z,9.68
2022-10-22T00:29:42.767Z,9.75
2022-10-22T00:32:10.688Z,8.88
2022-10-22T00:34:38.559Z,9.43
2022-10-22T00:37:06.985Z,10.48
2022-10-22T00:39:35.279Z,10.93
2022-10-22T00:42:03.175Z,13.85
2022-10-22T00:45:23.653Z,9.88
2022-10-22T00:48:20.064Z,9.93
2022-10-22T00:51:01.427Z,12.20
2022-10-22T00:53:39.666Z,13.73
2022-10-22T00:56:09.325Z,12.00
2022-10-22T00:58:43.979Z,11.82
2022-10-22T01:01:20.302Z,11.05
2022-10-22T01:03:49.051Z,12.10
2022-10-22T01:06:29.207Z,12.10
2022-10-22T01:09:34.835Z,13.40
2022-10-22T01:12:36.629Z,12.95
2022-10-22T01:15:29.154Z,11.52
2022-10-22T01:18:15.725Z,12.25
2022-10-22T01:21:10.283Z,11.27
2022-10-22T01:24:15.686Z,10.00
2022-10-22T01:27:11.007Z,11.23
2022-10-22T01:30:03.384Z,16.10
2022-10-22T01:32:59.273Z,9.05
2022-10-22T01:35:39.189Z,12.55
2022-10-22T01:38:12.686Z,10.90
2022-10-22T01:40:41.883Z,11.05
2022-10-22T01:43:11.620Z,14.30
2022-10-22T01:45:56.539Z,11.60
2022-10-22T01:48:33.700Z,13.70
2022-10-22T01:51:35.122Z,12.30
2022-10-22T01:54:44.483Z,11.77
2022-10-22T01:57:51.439Z,11.05
2022-10-22T02:00:20.165Z,8.95
2022-10-22T02:03:07.509Z,12.23
2022-10-22T02:05:56.193Z,10.43
2022-10-22T02:08:33.166Z,9.25
2022-10-22T02:11:02.872Z,12.65
2022-10-22T02:13:39.743Z,9.38
2022-10-22T02:16:12.723Z,11.15
2022-10-22T02:18:45.158Z,10.10
2022-10-22T02:21:13.737Z,10.05
2022-10-22T02:23:41.767Z,9.30
2022-10-22T02:26:22.011Z,17.17
2022-10-22T02:29:05.545Z,10.20
2022-10-22T02:31:38.714Z,9.52
2022-10-22T02:34:14.791Z,11.30
2022-10-22T02:36:46.849Z,13.15
2022-10-22T02:39:20.193Z,8.07
2022-10-22T02:41:48.912Z,10.07
2022-10-22T02:44:21.042Z,10.23
2022-10-22T02:46:49.573Z,11.70
2022-10-22T02:49:18.058Z,9.63
2022-10-22T02:51:46.537Z,9.60
2022-10-22T02:54:16.410Z,11.30
2022-10-22T02:56:44.402Z,11.45
2022-10-22T02:59:12.230Z,11.23
2022-10-22T03:01:40.289Z,11.10
2022-10-22T03:04:08.137Z,12.27
2022-10-22T03:06:36.508Z,8.90
2022-10-22T03:09:04.925Z,11.30
2022-10-22T03:11:32.786Z,8.95
2022-10-22T03:14:00.692Z,10.88
2022-10-22T03:16:28.888Z,9.10
2022-10-22T03:18:56.753Z,13.75
2022-10-22T03:21:42.753Z,9.10
2022-10-22T03:24:22.497Z,11.95
2022-10-22T03:26:53.307Z,10.68
2022-10-22T03:29:26.085Z,10.43
2022-10-22T03:31:55.119Z,10.40
2022-10-22T03:34:23.072Z,11.55
2022-10-22T03:36:53.235Z,9.27
2022-10-22T03:39:24.047Z,11.02
2022-10-22T03:41:53.514Z,9.57
2022-10-22T03:44:22.911Z,10.07
2022-10-22T03:46:51.326Z,10.70
2022-10-22T03:49:19.219Z,10.15
2022-10-22T03:51:47.316Z,9.40
2022-10-22T03:54:17.389Z,9.05
2022-10-22T03:56:45.208Z,13.85
2022-10-22T03:59:13.785Z,11.20
2022-10-22T04:01:41.811Z,9.55
2022-10-22T04:04:09.709Z,10.15
2022-10-22T04:06:37.814Z,10.25
2022-10-22T04:09:06.326Z,9.88
2022-10-22T04:11:34.156Z,12.20
2022-10-22T04:14:02.033Z,8.80
2022-10-22T04:16:31.821Z,11.73
2022-10-22T04:18:59.910Z,11.52
2022-10-22T04:21:27.871Z,11.20
2022-10-22T04:23:55.823Z,9.63
2022-10-22T04:26:24.046Z,9.73
2022-10-22T04:28:53.352Z,10.18
2022-10-22T04:31:24.549Z,12.68
2022-10-22T04:33:59.275Z,12.40
2022-10-22T04:36:29.116Z,10.98
2022-10-22T04:39:01.261Z,11.07
2022-10-22T04:41:36.832Z,12.38
2022-10-22T04:44:06.142Z,10.77
2022-10-22T04:46:35.735Z,7.10
2022-10-22T04:49:04.865Z,10.70
2022-10-22T04:51:33.250Z,13.90
2022-10-22T04:54:01.205Z,9.93
2022-10-22T04:56:31.966Z,10.65
2022-10-22T04:59:07.468Z,12.40
2022-10-22T05:01:42.635Z,10.10
2022-10-22T05:04:19.819Z,10.75
2022-10-22T05:06:49.159Z,9.18
2022-10-22T05:09:21.041Z,9.02
2022-10-22T05:11:51.876Z,10.30
2022-10-22T05:14:24.316Z,9.13
2022-10-22T05:16:53.658Z,8.23
2022-10-22T05:19:26.958Z,11.93
2022-10-22T05:21:58.085Z,10.93
2022-10-22T05:24:27.910Z,9.20
2022-10-22T05:26:59.330Z,12.00
2022-10-22T05:29:28.118Z,10.73
2022-10-22T05:31:56.168Z,15.98
2022-10-22T05:34:24.222Z,9.20
2022-10-22T05:36:52.102Z,12.85
2022-10-22T05:39:19.961Z,10.43
2022-10-22T05:41:50.719Z,11.27
2022-10-22T05:44:18.775Z,9.93
2022-10-22T05:46:46.566Z,14.30
2022-10-22T05:49:17.964Z,11.40
2022-10-22T05:51:47.035Z,11.25
2022-10-22T05:54:20.934Z,11.27
2022-10-22T05:56:49.348Z,14.30
2022-10-22T05:59:17.373Z,16.80
2022-10-22T06:01:45.454Z,18.52
2022-10-22T06:04:15.024Z,19.67
2022-10-22T06:06:51.669Z,19.75
2022-10-22T06:09:24.854Z,19.58
2022-10-22T06:11:53.910Z,12.73
2022-10-22T06:14:22.780Z,15.40
2022-10-22T06:16:51.892Z,13.93
2022-10-22T06:19:23.824Z,16.55
2022-10-22T06:21:51.912Z,18.02
2022-10-22T06:24:19.722Z,17.20
2022-10-22T06:26:54.771Z,12.68
2022-10-22T06:29:23.863Z,10.93
2022-10-22T06:31:52.177Z,13.10
2022-10-22T06:34:20.617Z,15.38
2022-10-22T06:36:51.722Z,12.63
2022-10-22T06:39:19.865Z,11.50
2022-10-22T06:41:47.959Z,14.38
2022-10-22T06:44:20.144Z,14.48
2022-10-22T06:46:52.676Z,15.52
2022-10-22T06:49:21.826Z,17.98
2022-10-22T06:51:54.003Z,13.25
2022-10-22T06:54:22.435Z,16.42
2022-10-22T06:56:50.553Z,17.98
2022-10-22T06:59:18.883Z,11.95
2022-10-22T07:01:47.026Z,16.92
2022-10-22T07:04:15.841Z,14.38
2022-10-22T07:06:43.944Z,14.27
2022-10-22T07:09:12.405Z,23.35
2022-10-22T07:11:44.943Z,19.15
2022-10-22T07:14:14.990Z,19.40
2022-10-22T07:16:43.371Z,22.98
2022-10-22T07:19:11.878Z,16.00
2022-10-22T07:21:40.165Z,16.10
2022-10-22T07:24:08.806Z,20.85
2022-10-22T07:26:37.452Z,18.30
2022-10-22T07:29:05.854Z,15.07
2022-10-22T07:31:34.374Z,16.70
2022-10-22T07:34:02.808Z,15.88
2022-10-22T07:36:30.642Z,15.38
2022-10-22T07:39:01.722Z,14.52
2022-10-22T07:41:31.196Z,17.98
2022-10-22T07:43:59.819Z,15.30
2022-10-22T07:46:28.539Z,17.08
2022-10-22T07:48:56.639Z,18.15
2022-10-22T07:51:24.737Z,16.48
2022-10-22T07:53:52.687Z,17.13
2022-10-22T07:56:21.058Z,16.30
2022-10-22T07:58:49.129Z,18.55
2022-10-22T08:01:17.310Z,25.08
2022-10-22T08:03:45.469Z,18.95
2022-10-22T08:06:15.115Z,22.17
2022-10-22T08:08:43.832Z,17.10
2022-10-22T08:11:12.834Z,19.38
2022-10-22T08:13:45.053Z,16.30
2022-10-22T08:16:14.715Z,20.63
2022-10-22T08:18:42.846Z,20.55
2022-10-22T08:21:12.768Z,18.40
2022-10-22T08:23:41.401Z,17.30
2022-10-22T08:26:10.562Z,16.33
2022-10-22T08:28:38.663Z,18.23
2022-10-22T08:31:08.694Z,15.98
2022-10-22T08:33:38.981Z,16.42
2022-10-22T08:36:08.058Z,15.60
2022-10-22T08:38:36.316Z,16.52
2022-10-22T08:41:20.618Z,20.35
2022-10-22T08:44:23.789Z,18.25
2022-10-22T08:47:21.636Z,17.13
2022-10-22T08:49:52.137Z,22.48
2022-10-22T08:52:21.093Z,18.25
2022-10-22T08:55:02.144Z,23.00
2022-10-22T08:58:03.667Z,20.67
2022-10-22T09:00:58.889Z,22.55
2022-10-22T09:03:37.251Z,24.45
2022-10-22T09:06:26.160Z,695.42
2022-10-22T09:08:57.078Z,566.95
2022-10-22T09:11:37.864Z,438.70
2022-10-22T09:14:07.102Z,424.48
2022-10-22T09:17:10.244Z,504.05
2022-10-22T09:20:03.572Z,222.98
2022-10-22T09:23:11.013Z,101.05
2022-10-22T09:25:39.460Z,103.78
2022-10-22T09:28:10.178Z,54.15
2022-10-22T09:30:40.253Z,571.63
2022-10-22T09:33:08.357Z,658.47
2022-10-22T09:35:57.009Z,262.42
2022-10-22T09:38:30.033Z,92.25
2022-10-22T09:41:00.977Z,51.97
2022-10-22T09:43:29.411Z,63.80
2022-10-22T09:46:03.944Z,60.67
2022-10-22T09:48:39.511Z,43.78
2022-10-22T09:51:25.576Z,76.30
2022-10-22T09:54:01.056Z,51.35
2022-10-22T09:56:36.603Z,42.75
2022-10-22T09:59:04.961Z,32.78
2022-10-22T10:01:36.543Z,30.88
2022-10-22T10:04:16.223Z,29.95
2022-10-22T10:06:45.248Z,27.42
2022-10-22T10:09:23.648Z,55.97
2022-10-22T10:12:21.338Z,136.70
2022-10-22T10:15:01.339Z,40.67
2022-10-22T10:18:16.157Z,29.60
2022-10-22T10:21:08.719Z,27.75
2022-10-22T10:24:09.709Z,30.63
2022-10-22T10:27:01.251Z,26.30
2022-10-22T10:30:06.700Z,26.85
2022-10-22T10:33:16.087Z,29.92
2022-10-22T10:36:06.884Z,37.72
2022-10-22T10:39:16.287Z,29.02
2022-10-22T10:42:02.650Z,20.90
2022-10-22T10:45:01.316Z,21.75
2022-10-22T10:48:10.682Z,20.40
2022-10-22T10:50:56.332Z,24.13
2022-10-22T10:53:42.793Z,24.17
2022-10-22T10:56:41.642Z,23.55
2022-10-22T10:59:50.468Z,24.23
2022-10-22T11:02:40.459Z,24.08
2022-10-22T11:05:31.938Z,28.27
2022-10-22T11:08:28.176Z,23.95
2022-10-22T11:11:23.237Z,30.95
2022-10-22T11:14:17.284Z,26.92
2022-10-22T11:17:17.166Z,25.67
2022-10-22T11:20:30.477Z,31.10
2022-10-22T11:23:20.118Z,25.33
2022-10-22T11:25:51.141Z,26.27
2022-10-22T11:28:45.660Z,18.45
2022-10-22T11:31:18.455Z,22.05
2022-10-22T11:34:09.788Z,42.85
2022-10-22T11:36:45.288Z,20.15
2022-10-22T11:39:34.259Z,22.55
2022-10-22T11:42:23.527Z,23.38
2022-10-22T11:45:28.835Z,23.52
2022-10-22T11:48:11.959Z,23.75
2022-10-22T11:51:01.248Z,23.58
2022-10-22T11:53:34.442Z,21.75
2022-10-22T11:56:10.014Z,19.98
2022-10-22T11:58:39.641Z,20.95
2022-10-22T12:01:10.624Z,25.65
2022-10-22T12:03:44.451Z,22.83
2022-10-22T12:06:16.015Z,26.67
2022-10-22T12:08:50.344Z,23.92
2022-10-22T12:11:50.457Z,29.92
2022-10-22T12:14:48.406Z,26.15
2022-10-22T12:17:18.173Z,31.48
2022-10-22T12:20:11.774Z,29.23
2022-10-22T12:22:40.501Z,21.90
2022-10-22T12:25:24.808Z,23.92
2022-10-22T12:27:58.229Z,27.80
2022-10-22T12:30:31.946Z,25.80
2022-10-22T12:33:03.863Z,21.25
2022-10-22T12:35:43.848Z,24.23
2022-10-22T12:38:22.743Z,29.17
2022-10-22T12:40:54.848Z,27.20
2022-10-22T12:43:31.382Z,24.92
2022-10-22T12:46:00.185Z,24.52
2022-10-22T12:48:34.745Z,25.52
2022-10-22T12:51:08.357Z,35.20
2022-10-22T12:53:52.390Z,35.15
2022-10-22T12:56:26.900Z,28.92
2022-10-22T12:59:03.760Z,34.20
2022-10-22T13:01:42.396Z,33.40
2022-10-22T13:04:15.333Z,29.88
2022-10-22T13:07:07.494Z,32.03
2022-10-22T13:09:59.708Z,37.63
2022-10-22T13:12:35.525Z,42.88
2022-10-22T13:15:28.118Z,43.58
2022-10-22T13:18:24.143Z,32.90
2022-10-22T13:21:07.816Z,32.05
2022-10-22T13:23:35.911Z,25.95
2022-10-22T13:26:15.237Z,31.25
2022-10-22T13:28:50.856Z,30.48
2022-10-22T13:31:26.712Z,31.83
2022-10-22T13:34:01.408Z,28.73
2022-10-22T13:36:32.461Z,36.22
2022-10-22T13:39:00.620Z,32.45
2022-10-22T13:41:32.504Z,31.98
2022-10-22T13:44:00.819Z,37.08
2022-10-22T13:46:29.577Z,43.75
2022-10-22T13:49:00.155Z,43.13
2022-10-22T13:51:37.693Z,41.17
2022-10-22T13:54:30.468Z,38.03
2022-10-22T13:56:58.625Z,36.90
2022-10-22T13:59:26.472Z,30.33
2022-10-22T14:01:56.147Z,28.88
2022-10-22T14:04:24.323Z,31.10
2022-10-22T14:06:52.779Z,36.30
2022-10-22T14:09:21.437Z,39.70
2022-10-22T14:11:49.624Z,38.05
2022-10-22T14:14:21.045Z,27.83
2022-10-22T14:16:49.641Z,33.17
2022-10-22T14:19:18.515Z,34.72
2022-10-22T14:21:47.313Z,39.78
2022-10-22T14:24:15.938Z,38.83
2022-10-22T14:26:44.380Z,37.42
2022-10-22T14:29:12.287Z,32.38
2022-10-22T14:31:43.084Z,34.70
2022-10-22T14:34:15.829Z,37.20
2022-10-22T14:36:44.389Z,38.25
2022-10-22T14:39:13.934Z,39.20
2022-10-22T14:41:42.707Z,38.30
2022-10-22T14:44:17.304Z,38.80
2022-10-22T14:46:46.962Z,32.83
2022-10-22T14:49:18.097Z,43.92
2022-10-22T14:51:47.641Z,35.08
2022-10-22T14:54:16.607Z,39.20
2022-10-22T14:56:44.987Z,37.83
2022-10-22T14:59:15.898Z,41.55
2022-10-22T15:01:45.041Z,38.72
2022-10-22T15:04:15.743Z,40.20
2022-10-22T15:06:43.710Z,40.25
2022-10-22T15:09:11.751Z,40.30
2022-10-22T15:11:40.063Z,43.10
2022-10-22T15:14:08.392Z,39.97
2022-10-22T15:16:36.368Z,36.90
2022-10-22T15:19:04.541Z,39.88
2022-10-22T15:21:33.711Z,36.72
2022-10-22T15:24:01.776Z,41.38
2022-10-22T15:26:29.914Z,36.22
2022-10-22T15:28:57.892Z,37.17
2022-10-22T15:31:46.315Z,41.58
2022-10-22T15:34:20.280Z,44.33
2022-10-22T15:36:48.553Z,41.88
2022-10-22T15:39:16.905Z,42.90
2022-10-22T15:41:49.448Z,43.97
2022-10-22T15:44:22.216Z,43.10
2022-10-22T15:46:51.614Z,42.88
2022-10-22T15:49:19.981Z,42.97
2022-10-22T15:51:48.592Z,44.97
2022-10-22T15:54:24.304Z,43.10
2022-10-22T15:56:52.889Z,43.17
2022-10-22T15:59:21.556Z,43.72
2022-10-22T16:01:49.961Z,44.38
2022-10-22T16:04:18.684Z,52.00
2022-10-22T16:06:53.073Z,41.40
2022-10-22T16:09:24.669Z,46.60
2022-10-22T16:11:54.491Z,47.65
2022-10-22T16:14:24.420Z,45.67
2022-10-22T16:16:56.067Z,44.58
2022-10-22T16:19:25.449Z,49.22
2022-10-22T16:21:56.846Z,43.13
2022-10-22T16:24:25.071Z,45.50
2022-10-22T16:26:53.526Z,47.88
2022-10-22T16:29:21.739Z,45.53
2022-10-22T16:31:49.779Z,42.65
2022-10-22T16:34:18.453Z,44.78
2022-10-22T16:36:46.951Z,44.90
2022-10-22T16:39:15.452Z,48.78
2022-10-22T16:41:43.701Z,39.55
2022-10-22T16:44:13.966Z,42.75
2022-10-22T16:46:42.506Z,42.88
2022-10-22T16:49:10.776Z,44.85
2022-10-22T16:51:39.740Z,43.83
2022-10-22T16:54:11.302Z,48.10
2022-10-22T16:56:41.833Z,47.45
2022-10-22T16:59:09.964Z,41.60
2022-10-22T17:01:40.968Z,52.17
2022-10-22T17:04:10.987Z,50.05
2022-10-22T17:06:39.586Z,48.80
2022-10-22T17:09:07.832Z,47.10
2022-10-22T17:11:38.068Z,48.03
2022-10-22T17:14:08.210Z,47.33
2022-10-22T17:16:37.062Z,42.75
2022-10-22T17:19:06.789Z,51.30
2022-10-22T17:21:34.824Z,46.38
2022-10-22T17:24:02.877Z,46.65
2022-10-22T17:26:34.012Z,46.45
2022-10-22T17:29:01.944Z,49.42
2022-10-22T17:31:40.361Z,45.72
2022-10-22T17:34:15.266Z,50.83
2022-10-22T17:36:45.062Z,46.75
2022-10-22T17:39:18.432Z,44.92
2022-10-22T17:41:46.947Z,50.60
2022-10-22T17:44:16.258Z,52.50
2022-10-22T17:46:45.372Z,52.28
2022-10-22T17:49:19.288Z,47.35
2022-10-22T17:51:47.578Z,53.00
2022-10-22T17:54:15.903Z,49.47
2022-10-22T17:56:44.125Z,46.75
2022-10-22T17:59:16.256Z,48.95
2022-10-22T18:01:47.299Z,46.53
2022-10-22T18:04:19.190Z,50.45
2022-10-22T18:06:48.550Z,49.63
2022-10-22T18:09:19.433Z,44.05
2022-10-22T18:11:51.083Z,46.83
2022-10-22T18:14:21.921Z,50.35
2022-10-22T18:16:51.098Z,53.03
2022-10-22T18:19:24.691Z,45.72
2022-10-22T18:21:53.171Z,54.60
2022-10-22T18:24:21.300Z,56.42
2022-10-22T18:26:49.661Z,56.58
2022-10-22T18:29:21.071Z,59.13
2022-10-22T18:31:49.640Z,52.63
2022-10-22T18:34:20.379Z,56.70
2022-10-22T18:36:51.215Z,51.40
2022-10-22T18:39:19.916Z,54.28
2022-10-22T18:41:47.856Z,54.92
2022-10-22T18:44:16.587Z,57.28
2022-10-22T18:46:44.669Z,50.40
2022-10-22T18:49:18.727Z,52.15
2022-10-22T18:51:53.154Z,50.75
2022-10-22T18:54:24.650Z,57.75
2022-10-22T18:57:02.591Z,51.08
2022-10-22T18:59:31.742Z,60.58
2022-10-22T19:02:00.288Z,52.22
2022-10-22T19:04:36.850Z,50.15
2022-10-22T19:07:07.224Z,49.30
2022-10-22T19:09:35.617Z,55.58
2022-10-22T19:12:03.765Z,54.53
2022-10-22T19:14:32.627Z,50.10
2022-10-22T19:17:00.595Z,49.22
2022-10-22T19:19:28.695Z,47.90
2022-10-22T19:21:57.254Z,49.95
2022-10-22T19:24:25.923Z,49.70
2022-10-22T19:26:57.521Z,46.67
2022-10-22T19:29:25.653Z,51.08
2022-10-22T19:31:54.220Z,48.08
2022-10-22T19:34:22.502Z,48.13
2022-10-22T19:36:52.102Z,49.00
2022-10-22T19:39:21.238Z,50.30
2022-10-22T19:41:49.439Z,52.10
2022-10-22T19:44:20.237Z,50.55
2022-10-22T19:46:48.295Z,52.97
2022-10-22T19:49:22.089Z,49.58
2022-10-22T19:51:51.190Z,48.95
2022-10-22T19:54:19.891Z,50.28
2022-10-22T19:56:48.895Z,55.33
2022-10-22T19:59:20.881Z,50.30
2022-10-22T20:01:49.111Z,50.15
2022-10-22T20:04:18.733Z,57.15
2022-10-22T20:06:47.494Z,53.55
2022-10-22T20:09:15.791Z,47.67
2022-10-22T20:11:44.467Z,49.55
2022-10-22T20:14:14.996Z,53.17
2022-10-22T20:16:44.067Z,47.08
2022-10-22T20:19:16.421Z,50.72
2022-10-22T20:21:49.239Z,48.00
2022-10-22T20:26:48.494Z,44.60
2022-10-22T20:29:19.339Z,48.63
2022-10-22T20:31:48.526Z,44.85
2022-10-22T20:34:17.545Z,47.75
2022-10-22T20:36:46.040Z,45.35
2022-10-22T20:39:16.816Z,43.67
2022-10-22T20:41:45.380Z,45.17
2022-10-22T20:44:17.373Z,40.92
2022-10-22T20:46:45.695Z,38.45
2022-10-22T20:49:18.220Z,42.78
2022-10-22T20:51:46.427Z,38.45
2022-10-22T20:54:23.450Z,48.53
2022-10-22T20:56:51.638Z,38.42
2022-10-22T21:00:03.414Z,36.78
2022-10-22T21:02:31.889Z,38.30
2022-10-22T21:05:01.694Z,39.28
2022-10-22T21:07:29.746Z,36.42
2022-10-22T21:09:57.873Z,37.75
2022-10-22T21:12:41.933Z,36.35
2022-10-22T21:15:12.641Z,35.40
2022-10-22T21:17:41.408Z,36.83
2022-10-22T21:22:38.762Z,36.72
2022-10-22T21:25:07.693Z,36.53
2022-10-22T21:27:35.759Z,31.42
2022-10-22T21:30:06.948Z,35.97
2022-10-22T21:32:36.307Z,35.85
2022-10-22T21:35:07.336Z,34.28
2022-10-22T21:37:36.562Z,34.33
2022-10-22T21:40:08.945Z,33.67
2022-10-22T21:42:37.116Z,32.03
2022-10-22T21:45:10.469Z,31.40
2022-10-22T21:47:41.970Z,31.25
2022-10-22T21:50:10.396Z,33.40
2022-10-22T21:52:38.626Z,32.88
2022-10-22T21:55:07.194Z,31.85
2022-10-22T21:57:35.804Z,33.03
2022-10-22T22:00:07.607Z,30.80
2022-10-22T22:05:03.352Z,35.55
2022-10-22T22:07:31.491Z,44.17
2022-10-22T22:09:59.493Z,47.70
2022-10-22T22:12:27.446Z,40.67
2022-10-22T22:14:55.469Z,49.60
2022-10-22T22:17:23.365Z,56.03
2022-10-22T22:19:51.360Z,51.35
2022-10-22T22:22:19.492Z,56.05
2022-10-22T22:24:47.558Z,41.22
2022-10-22T22:27:17.529Z,37.63
2022-10-22T22:29:46.418Z,42.83
2022-10-22T22:32:15.893Z,48.55
2022-10-22T22:34:43.834Z,50.65
2022-10-22T22:37:12.492Z,43.55
2022-10-22T22:39:40.400Z,46.17
2022-10-22T22:42:08.744Z,45.95
2022-10-22T22:44:38.971Z,37.13
2022-10-22T22:47:07.083Z,41.38
2022-10-22T22:49:36.506Z,30.27
2022-10-22T22:52:05.283Z,30.40
2022-10-22T22:54:33.148Z,48.17
2022-10-22T22:57:01.056Z,39.72
2022-10-22T22:59:29.204Z,35.90
2022-10-22T23:01:57.259Z,37.78
2022-10-22T23:04:25.484Z,52.42
2022-10-22T23:06:53.685Z,41.25
2022-10-22T23:09:21.697Z,47.45
2022-10-22T23:11:50.757Z,44.33
2022-10-22T23:14:20.347Z,45.28
2022-10-22T23:16:51.584Z,43.97
2022-10-22T23:19:22.771Z,41.83
2022-10-22T23:21:55.982Z,38.13
2022-10-22T23:24:28.644Z,43.90
2022-10-22T23:26:59.759Z,39.47
2022-10-22T23:29:33.873Z,39.17
2022-10-22T23:32:05.336Z,38.72
2022-10-22T23:34:33.364Z,38.88
2022-10-22T23:37:01.472Z,42.10
2022-10-22T23:39:30.161Z,35.90
2022-10-22T23:41:58.677Z,33.90
2022-10-22T23:44:26.806Z,28.55
2022-10-22T23:46:55.502Z,32.42
2022-10-22T23:49:23.433Z,36.05
2022-10-22T23:51:51.345Z,26.88
2022-10-22T23:54:19.551Z,30.35
2022-10-22T23:56:47.538Z,27.55
2022-10-22T23:59:16.298Z,26.42
